KHFF/HFF METAR and TAF weather

Enter ICAO airport designator
Station Type Date Time Source
KHFF METAR 2020/09/19 16:56 UTC NOAA

KHFF 191656Z AUTO 05012KT 10SM BKN230 18/07 A3024 RMK AO2 SLP254 T01780074


Station Type Date Time Source
KHFF Decoded METAR 2020/09/19 16:56 UTC NOAA

Mackall U. S. Army Airfield, NC, United States (KHFF) 35-02N 079-30W
Sep 19, 2020 - 12:56 PM EDT / 2020.09.19 1656 UTC
Wind: from the NE (050 degrees) at 14 MPH (12 KT):0
Visibility: 10 mile(s):0
Sky conditions: mostly cloudy
Temperature: 64.0 F (17.8 C)
Dew Point: 45.3 F (7.4 C)
Relative Humidity: 50%
Pressure (altimeter): 30.24 in. Hg (1024 hPa)
ob: KHFF 191656Z AUTO 05012KT 10SM BKN230 18/07 A3024 RMK AO2 SLP254 T01780074
cycle: 17

Station Type Date Time Source
KHFF TAF UTC NOAA

Error!

Example: see airport list